createdAt,value
2024-04-09T00:02:08.468Z,100.00
2024-04-09T00:04:36.629Z,100.00
2024-04-09T00:07:05.937Z,100.00
2024-04-09T00:09:33.699Z,100.00
2024-04-09T00:12:01.546Z,100.00
2024-04-09T00:14:29.005Z,100.00
2024-04-09T00:16:56.843Z,100.00
2024-04-09T00:19:25.362Z,100.00
2024-04-09T00:21:53.246Z,100.00
2024-04-09T00:24:20.486Z,100.00
2024-04-09T00:26:47.814Z,100.00
2024-04-09T00:29:15.388Z,100.00
2024-04-09T00:31:43.863Z,100.00
2024-04-09T00:34:11.780Z,100.00
2024-04-09T00:36:39.472Z,100.00
2024-04-09T00:39:21.287Z,100.00
2024-04-09T00:41:48.927Z,100.00
2024-04-09T00:44:16.640Z,100.00
2024-04-09T00:46:44.254Z,100.00
2024-04-09T00:49:11.630Z,100.00
2024-04-09T00:51:40.289Z,100.00
2024-04-09T00:54:12.295Z,100.00
2024-04-09T00:56:39.502Z,100.00
2024-04-09T00:59:06.784Z,100.00
2024-04-09T01:01:34.310Z,100.00
2024-04-09T01:04:01.911Z,100.00
2024-04-09T01:06:30.463Z,100.00
2024-04-09T01:08:57.888Z,100.00
2024-04-09T01:11:25.764Z,100.00
2024-04-09T01:13:54.446Z,100.00
2024-04-09T01:16:22.724Z,100.00
2024-04-09T01:18:50.074Z,100.00
2024-04-09T01:21:18.166Z,100.00
2024-04-09T01:23:45.440Z,100.00
2024-04-09T01:26:15.413Z,100.00
2024-04-09T01:28:43.066Z,100.00
2024-04-09T01:31:16.889Z,100.00
2024-04-09T01:33:44.441Z,100.00
2024-04-09T01:36:12.274Z,100.00
2024-04-09T01:38:39.582Z,100.00
2024-04-09T01:41:09.494Z,100.00
2024-04-09T01:43:36.664Z,100.00
2024-04-09T01:46:05.834Z,100.00
2024-04-09T01:48:33.382Z,100.00
2024-04-09T01:51:00.801Z,100.00
2024-04-09T01:53:28.912Z,100.00
2024-04-09T01:56:03.633Z,100.00
2024-04-09T01:58:31.675Z,100.00
2024-04-09T02:01:05.715Z,100.00
2024-04-09T02:03:33.844Z,100.00
2024-04-09T02:06:01.466Z,100.00
2024-04-09T02:08:28.776Z,100.00
2024-04-09T02:10:56.003Z,100.00
2024-04-09T02:13:26.189Z,100.00
2024-04-09T02:15:53.554Z,100.00
2024-04-09T02:18:20.891Z,100.00
2024-04-09T02:20:48.662Z,100.00
2024-04-09T02:23:16.110Z,100.00
2024-04-09T02:25:44.267Z,100.00
2024-04-09T02:28:12.476Z,100.00
2024-04-09T02:30:40.416Z,100.00
2024-04-09T02:33:07.876Z,100.00
2024-04-09T02:35:35.902Z,100.00
2024-04-09T02:38:03.236Z,100.00
2024-04-09T02:40:30.519Z,100.00
2024-04-09T02:42:57.842Z,100.00
2024-04-09T02:45:25.590Z,100.00
2024-04-09T02:47:53.293Z,100.00
2024-04-09T02:50:21.326Z,100.00
2024-04-09T02:52:50.542Z,100.00
2024-04-09T02:55:20.648Z,100.00
2024-04-09T02:57:49.673Z,100.00
2024-04-09T03:00:21.054Z,100.00
2024-04-09T03:02:52.299Z,100.00
2024-04-09T03:05:22.307Z,100.00
2024-04-09T03:07:52.839Z,100.00
2024-04-09T03:10:20.396Z,100.00
2024-04-09T03:12:47.577Z,100.00
2024-04-09T03:15:15.017Z,100.00
2024-04-09T03:17:42.530Z,100.00
2024-04-09T03:20:14.556Z,100.00
2024-04-09T03:22:42.890Z,100.00
2024-04-09T03:25:10.181Z,100.00
2024-04-09T03:27:37.507Z,100.00
2024-04-09T03:30:05.810Z,100.00
2024-04-09T03:32:33.325Z,100.00
2024-04-09T03:35:00.620Z,100.00
2024-04-09T03:37:27.919Z,100.00
2024-04-09T03:39:55.106Z,100.00
2024-04-09T03:42:22.361Z,100.00
2024-04-09T03:44:49.673Z,100.00
2024-04-09T03:47:17.150Z,100.00
2024-04-09T03:49:44.404Z,100.00
2024-04-09T03:52:12.157Z,100.00
2024-04-09T03:54:39.886Z,100.00
2024-04-09T03:57:07.212Z,100.00
2024-04-09T03:59:35.093Z,100.00
2024-04-09T04:02:03.039Z,100.00
2024-04-09T04:04:30.402Z,100.00
2024-04-09T04:06:57.627Z,100.00
2024-04-09T04:09:25.232Z,100.00
2024-04-09T04:11:52.678Z,100.00
2024-04-09T04:14:20.491Z,100.00
2024-04-09T04:16:48.099Z,100.00
2024-04-09T04:19:17.752Z,100.00
2024-04-09T04:21:45.629Z,100.00
2024-04-09T04:24:14.061Z,100.00
2024-04-09T04:26:41.301Z,100.00
2024-04-09T04:29:11.157Z,100.00
2024-04-09T04:31:38.648Z,100.00
2024-04-09T04:34:06.127Z,100.00
2024-04-09T04:36:34.074Z,100.00
2024-04-09T04:39:01.687Z,100.00
2024-04-09T04:41:29.220Z,100.00
2024-04-09T04:43:57.005Z,100.00
2024-04-09T04:46:24.468Z,100.00
2024-04-09T04:48:51.973Z,100.00
2024-04-09T04:51:19.449Z,100.00
2024-04-09T04:53:46.699Z,100.00
2024-04-09T04:56:13.917Z,100.00
2024-04-09T04:58:41.355Z,100.00
2024-04-09T05:01:11.066Z,100.00
2024-04-09T05:03:39.099Z,100.00
2024-04-09T05:06:07.778Z,100.00
2024-04-09T05:08:35.138Z,100.00
2024-04-09T05:11:09.865Z,100.00
2024-04-09T05:13:38.143Z,100.00
2024-04-09T05:16:05.462Z,100.00
2024-04-09T05:18:32.950Z,96.77
2024-04-09T05:21:00.466Z,88.73
2024-04-09T05:23:29.125Z,82.20
2024-04-09T05:25:56.411Z,77.13
2024-04-09T05:28:23.620Z,70.69
2024-04-09T05:30:51.326Z,63.93
2024-04-09T05:33:19.012Z,58.95
2024-04-09T05:35:46.297Z,55.57
2024-04-09T05:38:13.638Z,50.01
2024-04-09T05:40:40.962Z,47.38
2024-04-09T05:43:08.439Z,47.63
2024-04-09T05:45:35.672Z,47.93
2024-04-09T05:48:03.391Z,46.43
2024-04-09T05:50:30.912Z,45.50
2024-04-09T05:52:59.807Z,44.47
2024-04-09T05:55:27.155Z,44.06
2024-04-09T05:57:54.352Z,43.64
2024-04-09T06:00:22.905Z,43.46
2024-04-09T06:02:50.764Z,41.81
2024-04-09T06:05:18.943Z,40.95
2024-04-09T06:07:46.572Z,40.64
2024-04-09T06:10:16.287Z,41.10
2024-04-09T06:12:43.847Z,39.95
2024-04-09T06:15:11.895Z,40.40
2024-04-09T06:17:39.712Z,39.70
2024-04-09T06:20:07.237Z,39.27
2024-04-09T06:22:58.472Z,38.59
2024-04-09T06:25:25.831Z,38.26
2024-04-09T06:27:53.109Z,37.94
2024-04-09T06:30:21.054Z,36.63
2024-04-09T06:32:51.734Z,36.58
2024-04-09T06:35:20.491Z,36.45
2024-04-09T06:37:47.899Z,35.72
2024-04-09T06:40:15.415Z,35.41
2024-04-09T06:42:42.997Z,35.63
2024-04-09T06:45:10.804Z,35.40
2024-04-09T06:47:38.351Z,34.86
2024-04-09T06:50:06.362Z,34.54
2024-04-09T06:52:33.572Z,34.47
2024-04-09T06:55:00.977Z,34.59
2024-04-09T06:57:28.663Z,33.94
2024-04-09T06:59:55.920Z,33.58
2024-04-09T07:02:23.221Z,33.00
2024-04-09T07:04:50.662Z,32.33
2024-04-09T07:07:18.538Z,32.07
2024-04-09T07:09:46.062Z,31.82
2024-04-09T07:12:13.595Z,31.52
2024-04-09T07:14:41.082Z,30.56
2024-04-09T07:17:08.954Z,30.05
2024-04-09T07:19:36.432Z,29.88
2024-04-09T07:22:03.846Z,29.85
2024-04-09T07:24:34.783Z,29.87
2024-04-09T07:27:03.439Z,29.14
2024-04-09T07:29:32.286Z,28.38
2024-04-09T07:31:59.579Z,28.72
2024-04-09T07:34:26.850Z,28.76
2024-04-09T07:36:55.206Z,28.91
2024-04-09T07:39:23.300Z,29.04
2024-04-09T07:41:52.248Z,28.69
2024-04-09T07:44:19.988Z,28.28
2024-04-09T07:46:50.943Z,28.38
2024-04-09T07:49:18.372Z,27.89
2024-04-09T07:51:48.206Z,27.41
2024-04-09T07:54:15.662Z,27.21
2024-04-09T07:56:43.558Z,27.14
2024-04-09T07:59:11.014Z,26.88
2024-04-09T08:01:38.621Z,26.64
2024-04-09T08:04:06.465Z,26.31
2024-04-09T08:06:35.255Z,26.41
2024-04-09T08:09:03.199Z,25.82
2024-04-09T08:11:31.159Z,25.65
2024-04-09T08:13:58.608Z,25.25
2024-04-09T08:16:26.366Z,25.62
2024-04-09T08:18:53.896Z,25.33
2024-04-09T08:21:22.947Z,25.53
2024-04-09T08:23:50.559Z,25.96
2024-04-09T08:26:17.888Z,25.15
2024-04-09T08:28:47.899Z,25.37
2024-04-09T08:31:18.196Z,24.90
2024-04-09T08:33:46.531Z,24.98
2024-04-09T08:36:14.195Z,24.99
2024-04-09T08:38:41.625Z,25.55
2024-04-09T08:41:10.623Z,25.85
2024-04-09T08:43:49.357Z,25.37
2024-04-09T08:46:19.922Z,25.57
2024-04-09T08:48:47.720Z,25.65
2024-04-09T08:51:18.222Z,26.66
2024-04-09T08:53:49.066Z,26.83
2024-04-09T08:56:16.612Z,26.57
2024-04-09T08:58:47.248Z,26.66
2024-04-09T09:01:30.226Z,26.74
2024-04-09T09:03:57.789Z,27.28
2024-04-09T09:06:25.403Z,27.59
2024-04-09T09:08:52.753Z,28.17
2024-04-09T09:11:24.933Z,28.50
2024-04-09T09:13:52.244Z,28.13
2024-04-09T09:16:19.764Z,27.58
2024-04-09T09:18:47.027Z,27.42
2024-04-09T09:21:17.107Z,27.30
2024-04-09T09:23:45.105Z,27.82
2024-04-09T09:26:12.939Z,28.09
2024-04-09T09:28:40.243Z,27.57
2024-04-09T09:31:07.515Z,27.91
2024-04-09T09:33:35.210Z,28.06
2024-04-09T09:36:02.601Z,27.96
2024-04-09T09:38:30.299Z,28.00
2024-04-09T09:41:01.140Z,28.18
2024-04-09T09:46:46.764Z,29.61
2024-04-09T09:49:17.287Z,28.80
2024-04-09T09:51:46.312Z,28.82
2024-04-09T09:54:13.089Z,27.92
2024-04-09T09:56:40.455Z,27.70
2024-04-09T09:59:07.165Z,27.55
2024-04-09T10:01:34.391Z,27.55
2024-04-09T10:04:04.136Z,27.10
2024-04-09T10:06:31.357Z,27.39
2024-04-09T10:08:58.069Z,27.59
2024-04-09T10:11:24.656Z,28.83
2024-04-09T10:13:52.333Z,27.87
2024-04-09T10:16:19.571Z,27.47
2024-04-09T10:18:46.930Z,27.72
2024-04-09T10:21:16.699Z,27.84
2024-04-09T10:23:43.399Z,27.41
2024-04-09T10:26:10.289Z,27.46
2024-04-09T10:28:43.242Z,28.30
2024-04-09T10:31:10.794Z,28.86
2024-04-09T10:33:39.279Z,27.48
2024-04-09T10:36:07.428Z,28.13
2024-04-09T10:38:37.749Z,28.51
2024-04-09T10:41:04.918Z,29.77
2024-04-09T10:43:37.647Z,28.94
2024-04-09T10:46:11.667Z,28.66
2024-04-09T10:48:43.055Z,27.82
2024-04-09T10:51:10.668Z,29.38
2024-04-09T10:53:38.553Z,29.04
2024-04-09T10:56:06.272Z,27.87
2024-04-09T10:58:37.338Z,27.44
2024-04-09T11:01:06.527Z,26.72
2024-04-09T11:03:34.544Z,26.58
2024-04-09T11:06:01.832Z,26.61
2024-04-09T11:08:31.511Z,25.87
2024-04-09T11:11:01.114Z,25.99
2024-04-09T11:13:32.031Z,25.37
2024-04-09T11:15:58.779Z,25.40
2024-04-09T11:18:25.747Z,24.57
2024-04-09T11:20:56.413Z,24.32
2024-04-09T11:23:23.605Z,23.76
2024-04-09T11:25:54.126Z,23.31
2024-04-09T11:28:22.559Z,23.71
2024-04-09T11:30:52.987Z,23.27
2024-04-09T11:33:20.083Z,23.78
2024-04-09T11:35:55.328Z,23.90
2024-04-09T11:38:22.814Z,24.72
2024-04-09T11:40:50.244Z,24.97
2024-04-09T11:43:16.952Z,25.40
2024-04-09T11:45:44.004Z,25.30
2024-04-09T11:48:11.756Z,24.76
2024-04-09T11:50:38.536Z,25.19
2024-04-09T11:53:06.196Z,25.13
2024-04-09T11:55:33.412Z,24.87
2024-04-09T11:58:00.093Z,24.85
2024-04-09T12:00:30.909Z,25.04
2024-04-09T12:02:57.976Z,25.45
2024-04-09T12:05:24.726Z,25.84
2024-04-09T12:07:53.363Z,25.97
2024-04-09T12:10:23.307Z,26.30
2024-04-09T12:12:52.276Z,26.17
2024-04-09T12:15:19.815Z,26.03
2024-04-09T12:17:46.731Z,26.37
2024-04-09T12:20:13.640Z,26.37
2024-04-09T12:22:40.757Z,26.35
2024-04-09T12:25:07.408Z,26.01
2024-04-09T12:27:34.305Z,26.96
2024-04-09T12:30:04.145Z,27.27
2024-04-09T12:32:31.375Z,27.68
2024-04-09T12:34:58.842Z,28.06
2024-04-09T12:37:26.060Z,27.51
2024-04-09T12:39:53.109Z,28.40
2024-04-09T12:42:19.771Z,28.22
2024-04-09T12:44:46.557Z,27.87
2024-04-09T12:47:13.229Z,28.24
2024-04-09T12:49:44.504Z,28.55
2024-04-09T12:52:12.635Z,28.50
2024-04-09T12:54:39.772Z,28.65
2024-04-09T12:57:07.390Z,28.61
2024-04-09T12:59:49.512Z,28.08
2024-04-09T13:02:26.301Z,28.71
2024-04-09T13:04:53.574Z,29.01
2024-04-09T13:07:20.528Z,28.84
2024-04-09T13:09:48.696Z,28.63
2024-04-09T13:12:16.272Z,28.70
2024-04-09T13:16:43.702Z,28.76
2024-04-09T13:17:30.480Z,28.82
2024-04-09T13:19:57.310Z,29.17
2024-04-09T13:22:24.348Z,29.14
2024-04-09T13:24:56.074Z,28.98
2024-04-09T13:27:23.208Z,29.03
2024-04-09T13:29:50.175Z,29.09
2024-04-09T13:32:21.551Z,28.98
2024-04-09T13:34:48.521Z,28.96
2024-04-09T13:37:15.339Z,29.80
2024-04-09T13:39:46.386Z,30.22
2024-04-09T13:42:28.352Z,30.27
2024-04-09T13:44:54.999Z,30.19
2024-04-09T13:47:21.894Z,29.89
2024-04-09T13:49:50.181Z,30.53
2024-04-09T13:52:16.983Z,31.00
2024-04-09T13:54:45.057Z,31.34
2024-04-09T13:57:11.756Z,31.47
2024-04-09T13:59:39.129Z,31.75
2024-04-09T14:02:06.490Z,32.04
2024-04-09T14:04:33.273Z,31.53
2024-04-09T14:07:00.315Z,31.79
2024-04-09T14:09:27.495Z,31.25
2024-04-09T14:11:55.289Z,31.66
2024-04-09T14:14:23.631Z,31.38
2024-04-09T14:16:50.370Z,31.13
2024-04-09T14:19:20.208Z,30.70
2024-04-09T14:21:47.172Z,30.53
2024-04-09T14:24:14.132Z,30.25
2024-04-09T14:26:41.525Z,30.29
2024-04-09T14:29:11.216Z,29.91
2024-04-09T14:31:38.288Z,30.18
2024-04-09T14:34:05.123Z,30.27
2024-04-09T14:36:33.080Z,30.18
2024-04-09T14:38:59.755Z,30.58
2024-04-09T14:41:26.881Z,30.43
2024-04-09T14:43:53.995Z,30.50
2024-04-09T14:46:22.217Z,30.44
2024-04-09T14:48:51.012Z,30.65
2024-04-09T14:51:20.016Z,30.59
2024-04-09T14:53:47.181Z,30.59
2024-04-09T14:56:14.044Z,30.79
2024-04-09T14:58:41.456Z,30.95
2024-04-09T15:01:10.730Z,30.74
2024-04-09T15:03:40.440Z,31.32
2024-04-09T15:06:08.499Z,31.26
2024-04-09T15:08:36.786Z,31.11
2024-04-09T15:11:05.682Z,31.25
2024-04-09T15:13:36.002Z,31.50
2024-04-09T15:16:03.563Z,31.68
2024-04-09T15:18:32.365Z,32.10
2024-04-09T15:20:59.261Z,32.78
2024-04-09T15:23:25.874Z,33.04
2024-04-09T15:25:53.100Z,33.08
2024-04-09T15:28:19.899Z,32.98
2024-04-09T15:30:53.506Z,32.98
2024-04-09T15:33:24.152Z,33.27
2024-04-09T15:35:53.896Z,33.72
2024-04-09T15:38:21.490Z,34.08
2024-04-09T15:40:48.461Z,34.36
2024-04-09T15:43:16.107Z,34.47
2024-04-09T15:45:43.425Z,34.12
2024-04-09T15:48:11.548Z,34.05
2024-04-09T15:50:39.011Z,34.19
2024-04-09T15:53:05.795Z,34.23
2024-04-09T15:55:32.996Z,34.64
2024-04-09T15:57:59.772Z,35.33
2024-04-09T16:00:27.114Z,35.96
2024-04-09T16:02:54.254Z,36.76
2024-04-09T16:05:20.990Z,37.49
2024-04-09T16:07:47.753Z,38.80
2024-04-09T16:10:14.543Z,39.77
2024-04-09T16:12:44.593Z,43.21
2024-04-09T16:15:11.251Z,47.56
2024-04-09T16:17:38.186Z,50.09
2024-04-09T16:20:05.577Z,50.24
2024-04-09T16:22:34.690Z,50.50
2024-04-09T16:25:02.147Z,50.97
2024-04-09T16:27:40.500Z,48.11
2024-04-09T16:30:07.601Z,50.07
2024-04-09T16:32:39.466Z,50.47
2024-04-09T16:35:10.625Z,52.03
2024-04-09T16:37:37.610Z,53.11
2024-04-09T16:40:05.050Z,52.80
2024-04-09T16:42:32.334Z,53.05
2024-04-09T16:45:03.831Z,54.97
2024-04-09T16:47:31.136Z,55.66
2024-04-09T16:49:58.178Z,57.58
2024-04-09T16:52:25.713Z,57.63
2024-04-09T16:54:52.314Z,57.88
2024-04-09T16:57:23.323Z,59.53
2024-04-09T16:59:53.531Z,61.40
2024-04-09T17:02:20.148Z,60.54
2024-04-09T17:04:48.929Z,61.45
2024-04-09T17:07:16.072Z,67.61
2024-04-09T17:09:42.934Z,72.50
2024-04-09T17:12:11.243Z,73.83
2024-04-09T17:14:38.563Z,72.18
2024-04-09T17:17:05.503Z,74.99
2024-04-09T17:19:32.578Z,77.98
2024-04-09T17:21:59.249Z,79.36
2024-04-09T17:24:26.194Z,78.02
2024-04-09T17:26:54.468Z,79.68
2024-04-09T17:29:22.894Z,81.33
2024-04-09T17:31:50.825Z,84.33
2024-04-09T17:34:18.551Z,88.13
2024-04-09T17:36:45.382Z,84.57
2024-04-09T17:39:12.756Z,90.01
2024-04-09T17:41:39.454Z,92.76
2024-04-09T17:44:06.302Z,92.01
2024-04-09T17:46:33.054Z,93.74
2024-04-09T17:49:03.449Z,97.19
2024-04-09T17:51:30.611Z,99.84
2024-04-09T17:53:57.383Z,100.00
2024-04-09T17:56:24.269Z,100.00
2024-04-09T17:58:51.369Z,100.00
2024-04-09T18:01:22.748Z,100.00
2024-04-09T18:03:55.198Z,100.00
2024-04-09T18:06:23.530Z,100.00
2024-04-09T18:08:50.104Z,100.00
2024-04-09T18:11:17.490Z,100.00
2024-04-09T18:13:44.213Z,100.00
2024-04-09T18:16:12.182Z,100.00
2024-04-09T18:18:43.710Z,100.00
2024-04-09T18:21:10.865Z,100.00
2024-04-09T18:23:39.463Z,100.00
2024-04-09T18:26:09.384Z,100.00
2024-04-09T18:28:36.136Z,97.93
2024-04-09T18:31:04.712Z,98.93
2024-04-09T18:33:31.683Z,100.00
2024-04-09T18:36:02.554Z,100.00
2024-04-09T18:38:30.143Z,100.00
2024-04-09T18:41:15.150Z,100.00
2024-04-09T18:43:42.164Z,100.00
2024-04-09T18:46:09.237Z,100.00
2024-04-09T18:48:36.197Z,100.00
2024-04-09T18:51:05.363Z,100.00
2024-04-09T18:53:36.038Z,100.00
2024-04-09T18:56:03.316Z,100.00
2024-04-09T18:58:31.126Z,100.00
2024-04-09T19:00:58.161Z,100.00
2024-04-09T19:03:25.065Z,100.00
2024-04-09T19:05:52.998Z,100.00
2024-04-09T19:08:20.123Z,100.00
2024-04-09T19:10:46.761Z,100.00
2024-04-09T19:13:13.842Z,100.00
2024-04-09T19:15:41.191Z,100.00
2024-04-09T19:18:08.335Z,100.00
2024-04-09T19:20:35.430Z,100.00
2024-04-09T19:23:02.301Z,100.00
2024-04-09T19:25:29.841Z,100.00
2024-04-09T19:27:56.877Z,100.00
2024-04-09T19:30:24.067Z,100.00
2024-04-09T19:32:51.096Z,100.00
2024-04-09T19:35:18.107Z,100.00
2024-04-09T19:37:44.791Z,100.00
2024-04-09T19:40:12.903Z,100.00
2024-04-09T19:42:39.706Z,100.00
2024-04-09T19:45:06.775Z,100.00
2024-04-09T19:47:35.493Z,100.00
2024-04-09T19:50:02.571Z,100.00
2024-04-09T19:52:29.741Z,100.00
2024-04-09T19:54:56.475Z,100.00
2024-04-09T19:57:23.560Z,100.00
2024-04-09T19:59:51.096Z,100.00
2024-04-09T20:02:23.801Z,100.00
2024-04-09T20:04:53.744Z,100.00
2024-04-09T20:07:21.279Z,100.00
2024-04-09T20:09:49.355Z,100.00
2024-04-09T20:12:16.705Z,100.00
2024-04-09T20:14:49.647Z,100.00
2024-04-09T20:17:16.499Z,100.00
2024-04-09T20:19:43.355Z,100.00
2024-04-09T20:22:09.977Z,100.00
2024-04-09T20:24:36.880Z,100.00
2024-04-09T20:27:03.960Z,100.00
2024-04-09T20:29:30.788Z,100.00
2024-04-09T20:31:57.555Z,100.00
2024-04-09T20:34:24.804Z,100.00
2024-04-09T20:36:51.616Z,100.00
2024-04-09T20:39:21.152Z,100.00
2024-04-09T20:41:48.373Z,100.00
2024-04-09T20:44:15.120Z,100.00
2024-04-09T20:46:41.773Z,100.00
2024-04-09T20:49:08.610Z,100.00
2024-04-09T20:51:39.007Z,100.00
2024-04-09T20:54:06.516Z,100.00
2024-04-09T20:56:33.324Z,100.00
2024-04-09T20:59:00.770Z,100.00
2024-04-09T21:01:27.598Z,100.00
2024-04-09T21:03:56.914Z,100.00
2024-04-09T21:06:24.400Z,100.00
2024-04-09T21:08:52.652Z,100.00
2024-04-09T21:11:19.401Z,100.00
2024-04-09T21:13:46.085Z,100.00
2024-04-09T21:16:13.355Z,100.00
2024-04-09T21:18:41.959Z,100.00
2024-04-09T21:21:08.646Z,100.00
2024-04-09T21:23:35.667Z,100.00
2024-04-09T21:26:02.318Z,100.00
2024-04-09T21:28:29.448Z,100.00
2024-04-09T21:30:57.706Z,100.00
2024-04-09T21:33:24.556Z,100.00
2024-04-09T21:35:57.294Z,100.00
2024-04-09T21:38:23.920Z,100.00
2024-04-09T21:40:50.469Z,100.00
2024-04-09T21:43:17.602Z,100.00
2024-04-09T21:45:46.245Z,100.00
2024-04-09T21:48:13.535Z,100.00
2024-04-09T21:50:40.397Z,100.00
2024-04-09T21:53:07.052Z,100.00
2024-04-09T21:55:35.999Z,100.00
2024-04-09T21:58:04.794Z,100.00
2024-04-09T22:03:13.374Z,100.00
2024-04-09T22:05:40.827Z,100.00
2024-04-09T22:08:08.420Z,100.00
2024-04-09T22:10:35.872Z,100.00
2024-04-09T22:13:03.229Z,100.00
2024-04-09T22:15:31.239Z,100.00
2024-04-09T22:17:58.919Z,100.00
2024-04-09T22:20:26.342Z,100.00
2024-04-09T22:22:53.677Z,100.00
2024-04-09T22:25:21.575Z,100.00
2024-04-09T22:27:49.039Z,100.00
2024-04-09T22:30:16.747Z,100.00
2024-04-09T22:32:45.151Z,100.00
2024-04-09T22:35:12.749Z,100.00
2024-04-09T22:37:40.306Z,100.00
2024-04-09T22:40:09.847Z,100.00
2024-04-09T22:42:37.582Z,100.00
2024-04-09T22:45:05.357Z,100.00
2024-04-09T22:47:33.673Z,100.00
2024-04-09T22:50:01.359Z,100.00
2024-04-09T22:52:28.658Z,100.00
2024-04-09T22:54:57.181Z,100.00
2024-04-09T22:57:24.415Z,100.00
2024-04-09T22:59:51.895Z,100.00
2024-04-09T23:02:19.628Z,100.00
2024-04-09T23:04:48.735Z,100.00
2024-04-09T23:07:16.105Z,100.00
2024-04-09T23:09:46.770Z,100.00
2024-04-09T23:12:14.265Z,100.00
2024-04-09T23:14:42.988Z,100.00
2024-04-09T23:17:10.821Z,100.00
2024-04-09T23:19:38.234Z,100.00
2024-04-09T23:22:05.747Z,100.00
2024-04-09T23:24:32.980Z,100.00
2024-04-09T23:27:00.167Z,100.00
2024-04-09T23:29:28.043Z,100.00
2024-04-09T23:31:55.385Z,100.00
2024-04-09T23:34:22.677Z,100.00
2024-04-09T23:36:49.888Z,100.00
2024-04-09T23:39:17.081Z,100.00
2024-04-09T23:41:56.083Z,100.00
2024-04-09T23:44:31.360Z,100.00
2024-04-09T23:46:59.099Z,100.00
2024-04-09T23:49:26.353Z,100.00
2024-04-09T23:51:53.726Z,100.00
2024-04-09T23:54:21.017Z,100.00
2024-04-09T23:56:50.517Z,100.00
2024-04-09T23:59:18.247Z,100.00
